Time;durP1;ratioP1;P1;durP2;ratioP2;P2;SDS_P1;SDS_P2;PMS_P1;PMS_P2;Temp;Humidity;BMP_temperature;BMP_pressure;BME280_temperature;BME280_humidity;BME280_pressure;Samples;Min_cycle;Max_cycle;Signal;HPM_P1;HPM_P2
2021/06/02 00:01:09;;;;;;;2.22;0.90;;;21.20;38.70;;;;;;2289976;55;21817;-74
2021/06/02 00:03:37;;;;;;;2.50;1.02;;;21.10;38.90;;;;;;2283987;55;21451;-74
2021/06/02 00:06:03;;;;;;;2.28;0.93;;;21.00;38.90;;;;;;2285869;55;20972;-74
2021/06/02 00:08:29;;;;;;;2.60;0.80;;;21.00;39.10;;;;;;2290094;55;20969;-73
2021/06/02 00:10:57;;;;;;;1.75;0.88;;;20.90;39.20;;;;;;2265651;55;21128;-74
2021/06/02 00:13:23;;;;;;;3.12;1.10;;;20.80;39.30;;;;;;2297639;55;20969;-73
2021/06/02 00:15:49;;;;;;;1.70;0.80;;;20.70;39.30;;;;;;2294038;55;21792;-74
2021/06/02 00:18:16;;;;;;;2.70;1.25;;;20.70;39.50;;;;;;2290168;55;21039;-76
2021/06/02 00:20:42;;;;;;;3.60;1.30;;;20.60;39.60;;;;;;2513500;53;21129;-74
2021/06/02 00:23:09;;;;;;;2.58;1.20;;;20.50;39.70;;;;;;2300616;55;20993;-77
2021/06/02 00:25:36;;;;;;;2.37;1.15;;;20.40;39.80;;;;;;2292636;55;21013;-76
2021/06/02 00:28:02;;;;;;;3.67;0.98;;;20.30;39.80;;;;;;2296084;55;21056;-74
2021/06/02 00:30:29;;;;;;;2.62;1.20;;;20.20;39.90;;;;;;2294362;55;20973;-73
2021/06/02 00:32:58;;;;;;;3.08;1.48;;;20.20;40.10;;;;;;2515762;54;20993;-77
2021/06/02 00:36:01;;;;;;;2.25;1.10;;;20.10;40.20;;;;;;2282583;55;20968;-74
2021/06/02 00:38:27;;;;;;;3.37;1.20;;;20.00;40.40;;;;;;2527009;54;21058;-74
2021/06/02 00:40:54;;;;;;;2.90;1.00;;;19.90;40.30;;;;;;2519489;54;20997;-75
2021/06/02 00:43:24;;;;;;;2.28;1.00;;;19.80;40.40;;;;;;2297237;55;21046;-73
2021/06/02 00:45:50;;;;;;;2.25;1.02;;;19.70;40.50;;;;;;2519508;54;21497;-73
2021/06/02 00:48:18;;;;;;;3.10;1.00;;;19.60;40.60;;;;;;2291325;55;21017;-74
2021/06/02 00:50:49;;;;;;;2.72;1.00;;;19.50;40.70;;;;;;2293606;55;21405;-74
2021/06/02 00:53:16;;;;;;;2.15;0.90;;;19.40;40.90;;;;;;2517757;54;21520;-73
2021/06/02 00:55:45;;;;;;;2.20;1.00;;;19.30;40.90;;;;;;2437513;53;21001;-74
2021/06/02 00:58:19;;;;;;;2.58;1.12;;;19.20;41.50;;;;;;2510637;54;21548;-74
2021/06/02 01:00:46;;;;;;;3.15;1.40;;;19.10;41.10;;;;;;2527571;53;21012;-73
2021/06/02 01:03:12;;;;;;;2.50;1.30;;;19.00;41.20;;;;;;2516586;54;21482;-75
2021/06/02 01:05:38;;;;;;;2.50;1.12;;;18.90;41.30;;;;;;2519770;54;21418;-74
2021/06/02 01:08:05;;;;;;;2.22;1.02;;;18.90;41.60;;;;;;2297961;55;21030;-74
2021/06/02 01:10:32;;;;;;;2.62;0.95;;;18.80;41.60;;;;;;2291255;55;20996;-72
2021/06/02 01:12:59;;;;;;;2.75;1.10;;;18.70;41.70;;;;;;2398599;54;20992;-74
2021/06/02 01:15:28;;;;;;;2.17;1.20;;;18.60;41.80;;;;;;2292228;55;21056;-72
2021/06/02 01:18:04;;;;;;;3.12;1.30;;;18.50;41.90;;;;;;2292044;55;21590;-74
2021/06/02 01:20:30;;;;;;;3.10;1.58;;;18.50;42.00;;;;;;2297352;55;21293;-74
2021/06/02 01:22:57;;;;;;;4.72;2.37;;;18.40;42.10;;;;;;2524181;54;20962;-74
2021/06/02 01:25:30;;;;;;;4.82;3.10;;;18.30;42.10;;;;;;2292724;55;21009;-74
2021/06/02 01:27:56;;;;;;;;;;;18.30;42.30;;;;;;2293469;55;21002;-73
2021/06/02 01:30:22;;;;;;;4.50;2.92;;;18.20;42.20;;;;;;2292177;55;20115;-74
2021/06/02 01:40:52;;;;;;;5.43;3.28;;;18.20;42.10;;;;;;2298255;55;20926;-73
2021/06/02 01:45:29;;;;;;;4.07;1.93;;;18.00;42.30;;;;;;2298281;55;20946;-73
2021/06/02 01:58:15;;;;;;;3.40;1.60;;;17.90;42.80;;;;;;2301806;55;21526;-75
2021/06/02 02:02:29;;;;;;;2.55;1.23;;;17.60;42.70;;;;;;2297635;55;20965;-73
2021/06/02 02:05:27;;;;;;;3.10;1.40;;;17.50;43.20;;;;;;2299755;55;20990;-76
2021/06/02 02:08:18;;;;;;;2.83;1.40;;;17.40;43.50;;;;;;2298389;55;21826;-73
2021/06/02 02:11:30;;;;;;;2.90;1.27;;;17.30;43.50;;;;;;2286439;55;21099;-75
2021/06/02 02:14:58;;;;;;;2.92;1.30;;;17.30;43.90;;;;;;2287026;55;21055;-72
2021/06/02 02:17:50;;;;;;;2.10;1.00;;;17.20;43.90;;;;;;2527197;54;21026;-76
2021/06/02 02:20:18;;;;;;;;;;;17.20;44.00;;;;;;2303674;55;21072;-74
2021/06/02 02:23:22;;;;;;;2.15;0.90;;;17.20;43.80;;;;;;2370304;53;20100;-74
2021/06/02 02:26:24;;;;;;;2.83;1.30;;;17.10;44.10;;;;;;2518024;53;21033;-73
2021/06/02 02:30:37;;;;;;;2.87;1.35;;;17.10;44.20;;;;;;2293649;55;20962;-74
2021/06/02 02:33:35;;;;;;;3.33;1.45;;;17.00;44.40;;;;;;2296842;55;21720;-72
2021/06/02 02:36:13;;;;;;;4.75;2.08;;;16.90;44.60;;;;;;2273568;55;21879;-72
2021/06/02 02:41:35;;;;;;;3.17;1.52;;;16.90;44.70;;;;;;2282962;55;21024;-73
2021/06/02 02:50:52;;;;;;;2.53;1.20;;;16.80;44.60;;;;;;2295983;55;20941;-74
2021/06/02 02:53:22;;;;;;;2.20;1.08;;;16.80;44.50;;;;;;2297811;55;21025;-73
2021/06/02 02:56:00;;;;;;;2.62;1.20;;;16.70;44.50;;;;;;2517873;54;20994;-73
2021/06/02 03:00:04;;;;;;;3.08;1.60;;;16.60;44.90;;;;;;2297598;55;20986;-73
2021/06/02 03:02:40;;;;;;;;;;;16.60;45.30;;;;;;2532394;54;21013;-74
2021/06/02 03:05:09;;;;;;;2.17;0.95;;;16.60;45.00;;;;;;2331262;54;20112;-74
2021/06/02 03:07:36;;;;;;;2.70;1.20;;;16.50;44.80;;;;;;2500251;53;21086;-76
2021/06/02 03:10:09;;;;;;;3.20;1.48;;;16.40;45.00;;;;;;2410852;54;21060;-73
2021/06/02 03:12:51;;;;;;;3.75;2.10;;;16.40;45.30;;;;;;2292166;55;20984;-73
2021/06/02 03:16:05;;;;;;;3.97;2.45;;;16.40;45.60;;;;;;2291390;55;21061;-73
2021/06/02 03:18:52;;;;;;;4.75;2.67;;;16.30;45.90;;;;;;2297082;55;20978;-74
2021/06/02 03:21:48;;;;;;;6.97;3.50;;;16.30;45.60;;;;;;2337666;54;21058;-74
2021/06/02 03:31:06;;;;;;;7.87;3.37;;;16.30;45.90;;;;;;2294105;55;20989;-76
2021/06/02 03:38:16;;;;;;;3.42;1.40;;;16.20;45.60;;;;;;2522003;53;21803;-74
2021/06/02 03:41:05;;;;;;;2.70;1.30;;;16.10;45.70;;;;;;2300054;55;20966;-75
2021/06/02 03:43:36;;;;;;;3.58;1.60;;;16.10;45.60;;;;;;2525081;53;21054;-74
2021/06/02 03:52:11;;;;;;;5.25;2.05;;;16.00;45.60;;;;;;2519397;54;21025;-73
2021/06/02 03:56:18;;;;;;;2.58;1.15;;;16.00;45.80;;;;;;2300176;55;21021;-73
2021/06/02 04:00:18;;;;;;;3.62;1.52;;;15.90;46.00;;;;;;2293568;55;21301;-73
2021/06/02 04:03:10;;;;;;;3.33;1.40;;;15.90;46.10;;;;;;2298138;55;21427;-74
2021/06/02 04:06:02;;;;;;;3.10;1.02;;;15.90;46.30;;;;;;2295578;55;21073;-74
2021/06/02 04:08:50;;;;;;;3.80;1.30;;;15.90;46.30;;;;;;2516837;54;21967;-72
2021/06/02 04:14:31;;;;;;;4.18;1.35;;;15.90;46.70;;;;;;2280902;55;21751;-72
2021/06/02 04:16:58;;;;;;;2.80;1.20;;;15.90;46.80;;;;;;2498189;54;21086;-73
2021/06/02 04:19:33;;;;;;;3.45;1.58;;;15.90;46.60;;;;;;2300729;55;21494;-74
2021/06/02 04:22:08;;;;;;;3.97;1.73;;;15.90;47.00;;;;;;2518274;54;20952;-74
2021/06/02 04:24:36;;;;;;;3.15;1.70;;;15.90;47.50;;;;;;2293285;55;21049;-73
2021/06/02 04:27:02;;;;;;;5.28;1.95;;;16.00;47.40;;;;;;2290280;55;20956;-74
2021/06/02 04:29:29;;;;;;;3.60;2.10;;;15.90;47.50;;;;;;2293717;55;20989;-72
2021/06/02 04:32:05;;;;;;;4.00;2.20;;;15.90;47.70;;;;;;2291715;55;21065;-73
2021/06/02 04:34:31;;;;;;;4.18;2.10;;;16.00;48.00;;;;;;2290854;55;20977;-73
2021/06/02 04:37:00;;;;;;;3.85;2.30;;;16.00;47.90;;;;;;2291319;55;21001;-73
2021/06/02 04:39:27;;;;;;;4.53;2.47;;;16.00;48.00;;;;;;2295644;55;21050;-74
2021/06/02 04:41:59;;;;;;;4.78;2.50;;;16.00;48.00;;;;;;2508139;53;20964;-73
2021/06/02 04:44:25;;;;;;;4.85;2.53;;;16.10;48.10;;;;;;2295564;55;21021;-76
2021/06/02 04:46:52;;;;;;;4.30;2.47;;;16.10;48.10;;;;;;2518270;54;21076;-75
2021/06/02 04:49:19;;;;;;;3.87;2.40;;;16.20;48.20;;;;;;2293157;55;20993;-75
2021/06/02 04:54:30;;;;;;;3.60;1.90;;;16.20;48.30;;;;;;2333157;54;20959;-74
2021/06/02 04:59:55;;;;;;;3.62;1.87;;;16.20;48.50;;;;;;2497633;54;21072;-73
2021/06/02 05:07:48;;;;;;;3.80;1.87;;;16.30;48.60;;;;;;2380976;53;21006;-74
2021/06/02 05:14:13;;;;;;;14.30;8.40;;;16.40;48.10;;;;;;2297655;55;21050;-73
2021/06/02 05:18:29;;;;;;;6.70;3.62;;;16.50;48.30;;;;;;2523962;54;20949;-73
2021/06/02 05:23:59;;;;;;;4.78;2.40;;;16.60;48.40;;;;;;2523244;53;20938;-73
2021/06/02 05:27:35;;;;;;;3.60;1.73;;;16.70;48.50;;;;;;2498510;54;21629;-73
2021/06/02 05:30:45;;;;;;;3.28;1.50;;;16.70;48.70;;;;;;2278037;55;20982;-73
2021/06/02 05:36:07;;;;;;;2.45;1.25;;;16.80;48.90;;;;;;2300990;55;20994;-73
2021/06/02 05:39:02;;;;;;;2.60;1.30;;;16.90;49.10;;;;;;2320139;54;21002;-72
2021/06/02 05:42:06;;;;;;;2.90;1.37;;;17.00;49.10;;;;;;2299059;55;21045;-72
2021/06/02 05:45:36;;;;;;;2.85;1.37;;;17.10;49.30;;;;;;2296433;55;21050;-73
2021/06/02 05:48:39;;;;;;;2.97;1.58;;;17.20;49.30;;;;;;2305261;55;21643;-73
2021/06/02 05:51:42;;;;;;;3.65;1.58;;;17.30;49.30;;;;;;2527153;54;20978;-72
2021/06/02 05:55:59;;;;;;;2.80;1.27;;;17.40;49.40;;;;;;2297918;55;21025;-72
2021/06/02 05:59:02;;;;;;;3.42;1.33;;;17.50;49.30;;;;;;2298275;55;21009;-73
2021/06/02 06:05:12;;;;;;;3.05;1.80;;;17.60;49.40;;;;;;2295051;55;22064;-72
2021/06/02 06:13:01;;;;;;;3.65;1.23;;;17.80;49.40;;;;;;2524066;53;21001;-74
2021/06/02 06:17:29;;;;;;;2.00;1.00;;;18.10;49.30;;;;;;2298271;54;20994;-73
2021/06/02 06:20:24;;;;;;;2.67;1.05;;;18.30;49.10;;;;;;2297082;55;21009;-73
2021/06/02 06:24:35;;;;;;;3.08;1.30;;;18.40;49.30;;;;;;2424901;53;21021;-73
2021/06/02 06:27:21;;;;;;;3.10;1.23;;;18.60;49.40;;;;;;2294175;55;21117;-75
2021/06/02 06:30:14;;;;;;;3.08;1.40;;;18.70;49.50;;;;;;2294022;55;21057;-72
2021/06/02 06:32:41;;;;;;;2.95;1.40;;;18.80;49.60;;;;;;2264798;55;21109;-73
2021/06/02 06:35:09;;;;;;;3.10;1.50;;;19.00;49.90;;;;;;2281804;55;21047;-74
2021/06/02 06:37:47;;;;;;;2.95;1.48;;;19.10;50.00;;;;;;2513362;53;20938;-72
2021/06/02 06:40:15;;;;;;;3.33;1.90;;;19.20;50.00;;;;;;2298198;55;20954;-73
2021/06/02 06:42:50;;;;;;;3.72;1.48;;;19.40;50.10;;;;;;2285369;55;20936;-73
2021/06/02 06:45:32;;;;;;;3.15;1.77;;;19.50;50.10;;;;;;2478968;54;21046;-75
2021/06/02 06:48:03;;;;;;;3.08;1.60;;;19.70;50.00;;;;;;2291929;55;21008;-73
2021/06/02 06:50:29;;;;;;;3.08;1.65;;;19.80;49.80;;;;;;2291958;55;20958;-73
2021/06/02 06:52:57;;;;;;;3.35;1.60;;;19.90;49.80;;;;;;2284988;55;21131;-72
2021/06/02 06:55:23;;;;;;;2.80;1.70;;;20.10;50.00;;;;;;2274910;55;20991;-75
2021/06/02 06:57:50;;;;;;;3.15;1.60;;;20.20;49.80;;;;;;2291714;55;21505;-74
2021/06/02 07:00:17;;;;;;;3.12;1.75;;;20.40;49.80;;;;;;2282983;55;20955;-74
2021/06/02 07:02:44;;;;;;;3.33;1.58;;;20.50;49.80;;;;;;2280780;55;21433;-78
2021/06/02 07:05:11;;;;;;;3.47;1.80;;;20.60;49.90;;;;;;2512092;54;21493;-74
2021/06/02 07:07:41;;;;;;;2.85;1.55;;;20.80;49.90;;;;;;2289998;55;20933;-74
2021/06/02 07:10:13;;;;;;;2.97;1.70;;;21.00;49.60;;;;;;2290643;55;21042;-75
2021/06/02 07:12:45;;;;;;;3.45;1.77;;;21.10;49.50;;;;;;2281788;55;21032;-74
2021/06/02 07:15:13;;;;;;;;;;;21.20;49.50;;;;;;2298546;55;20969;-75
2021/06/02 07:17:40;;;;;;;2.55;1.27;;;21.40;49.20;;;;;;2281408;55;20129;-74
2021/06/02 07:20:07;;;;;;;3.17;1.80;;;21.50;49.30;;;;;;2300955;55;21729;-74
2021/06/02 07:22:36;;;;;;;3.83;1.67;;;21.60;49.30;;;;;;2502464;54;21005;-74
2021/06/02 07:25:03;;;;;;;3.45;1.30;;;21.70;49.20;;;;;;2360428;54;21812;-73
2021/06/02 07:27:29;;;;;;;3.08;1.70;;;21.90;49.50;;;;;;2322224;55;21079;-74
2021/06/02 07:29:56;;;;;;;4.68;1.87;;;22.00;49.70;;;;;;2293496;55;21727;-74
2021/06/02 07:32:22;;;;;;;2.72;1.50;;;22.20;49.90;;;;;;2294671;55;21668;-74
2021/06/02 07:38:17;;;;;;;3.70;1.95;;;22.60;49.30;;;;;;2395699;53;21735;-73
2021/06/02 07:40:43;;;;;;;3.12;1.50;;;22.70;49.30;;;;;;2292924;55;21401;-74
2021/06/02 07:43:11;;;;;;;3.12;1.83;;;22.90;49.20;;;;;;2293532;55;21009;-72
2021/06/02 07:45:37;;;;;;;3.35;1.92;;;23.00;48.90;;;;;;2290124;55;21562;-74
2021/06/02 07:48:05;;;;;;;3.78;2.03;;;23.10;48.50;;;;;;2298265;55;21144;-74
2021/06/02 07:50:31;;;;;;;3.25;2.05;;;23.20;48.20;;;;;;2299414;54;20969;-76
2021/06/02 07:52:57;;;;;;;3.87;2.00;;;23.30;48.20;;;;;;2452504;54;20950;-74
2021/06/02 07:55:25;;;;;;;5.00;2.15;;;23.40;48.10;;;;;;2523561;54;21040;-75
2021/06/02 07:57:51;;;;;;;3.53;2.00;;;23.40;48.00;;;;;;2517353;54;21001;-74
2021/06/02 08:00:17;;;;;;;20.35;10.13;;;23.50;47.80;;;;;;2295188;55;21650;-75
2021/06/02 08:02:44;;;;;;;9.63;4.12;;;23.60;47.60;;;;;;2523405;53;21076;-74
2021/06/02 08:05:13;;;;;;;5.97;3.12;;;23.70;47.40;;;;;;2295504;55;21075;-75
2021/06/02 08:07:43;;;;;;;5.55;2.20;;;23.80;47.20;;;;;;2523956;54;21001;-74
2021/06/02 08:10:10;;;;;;;4.85;2.05;;;23.90;47.10;;;;;;2296664;55;21030;-76
2021/06/02 08:12:37;;;;;;;5.62;2.40;;;24.00;46.80;;;;;;2296775;55;20962;-77
2021/06/02 08:15:04;;;;;;;3.97;1.95;;;24.10;46.40;;;;;;2521243;54;21357;-78
2021/06/02 08:17:31;;;;;;;6.03;1.60;;;24.10;46.20;;;;;;2521576;54;21040;-75
2021/06/02 08:19:58;;;;;;;4.85;1.50;;;24.20;46.30;;;;;;2295308;55;20998;-76
2021/06/02 08:22:25;;;;;;;3.00;1.55;;;24.30;46.30;;;;;;2294343;55;22004;-75
2021/06/02 08:24:51;;;;;;;3.97;1.40;;;24.40;46.30;;;;;;2276862;55;21369;-76
2021/06/02 08:27:20;;;;;;;4.80;1.30;;;24.50;46.30;;;;;;2530375;53;20933;-76
2021/06/02 08:29:47;;;;;;;2.35;1.17;;;24.60;46.30;;;;;;2304909;55;21041;-75
2021/06/02 08:32:13;;;;;;;3.45;1.48;;;24.70;46.30;;;;;;2528816;54;21043;-78
2021/06/02 08:34:40;;;;;;;2.20;1.17;;;24.70;46.10;;;;;;2299454;55;21054;-75
2021/06/02 08:37:06;;;;;;;2.58;1.20;;;24.80;45.70;;;;;;2273669;55;20943;-78
2021/06/02 08:39:33;;;;;;;4.32;1.40;;;24.90;45.40;;;;;;2297571;55;20961;-76
2021/06/02 08:42:10;;;;;;;3.65;1.45;;;25.00;45.30;;;;;;2304344;53;21080;-75
2021/06/02 08:44:36;;;;;;;2.53;1.20;;;25.00;45.10;;;;;;2302605;55;20976;-74
2021/06/02 08:47:03;;;;;;;2.53;1.48;;;25.10;45.10;;;;;;2301978;55;20932;-75
2021/06/02 08:49:29;;;;;;;3.03;1.30;;;25.20;45.00;;;;;;2470738;53;21008;-75
2021/06/02 08:51:56;;;;;;;4.97;1.30;;;25.20;44.70;;;;;;2306487;55;21057;-77
2021/06/02 08:54:22;;;;;;;2.90;1.67;;;25.30;44.70;;;;;;2289488;55;21027;-76
2021/06/02 08:56:48;;;;;;;3.72;1.40;;;25.40;44.60;;;;;;2294390;55;21014;-75
2021/06/02 08:59:17;;;;;;;2.80;1.45;;;25.40;44.40;;;;;;2486187;53;20990;-77
2021/06/02 09:01:43;;;;;;;2.53;1.20;;;25.50;44.40;;;;;;2295687;55;21937;-75
2021/06/02 09:04:10;;;;;;;3.65;1.42;;;25.60;44.30;;;;;;2403112;53;21012;-76
2021/06/02 09:06:37;;;;;;;2.50;1.27;;;25.70;44.20;;;;;;2378211;54;20961;-76
2021/06/02 09:09:04;;;;;;;2.50;1.20;;;25.80;44.10;;;;;;2314234;54;20924;-75
2021/06/02 09:11:36;;;;;;;3.15;1.40;;;25.80;43.90;;;;;;2301074;55;21892;-76
2021/06/02 09:14:19;;;;;;;3.62;1.37;;;25.90;43.60;;;;;;2324401;54;21000;-74
2021/06/02 09:16:49;;;;;;;2.53;1.20;;;26.00;43.80;;;;;;2301452;55;21004;-75
2021/06/02 09:19:16;;;;;;;2.37;1.20;;;26.00;43.20;;;;;;2299366;55;20938;-74
2021/06/02 09:21:42;;;;;;;2.97;1.20;;;26.10;43.30;;;;;;2295355;55;21429;-75
2021/06/02 09:24:09;;;;;;;3.28;1.30;;;26.20;43.20;;;;;;2301890;55;21010;-75
2021/06/02 09:26:45;;;;;;;2.35;1.20;;;26.20;43.20;;;;;;2295680;55;20980;-75
2021/06/02 09:29:12;;;;;;;2.55;1.17;;;26.20;42.90;;;;;;2296390;55;21006;-74
2021/06/02 09:31:39;;;;;;;4.15;1.42;;;26.30;43.10;;;;;;2360665;54;21050;-78
2021/06/02 09:34:25;;;;;;;3.08;1.23;;;26.30;42.80;;;;;;2291382;55;20993;-74
2021/06/02 09:37:06;;;;;;;3.22;1.37;;;26.30;42.00;;;;;;2335324;55;21784;-79
2021/06/02 09:39:40;;;;;;;3.35;1.23;;;26.40;42.50;;;;;;2303338;54;21289;-73
2021/06/02 09:42:27;;;;;;;2.28;1.10;;;26.50;42.30;;;;;;2296869;55;20921;-78
2021/06/02 09:45:10;;;;;;;2.50;1.23;;;26.50;41.80;;;;;;2305203;55;21011;-75
2021/06/02 09:47:52;;;;;;;4.40;1.20;;;26.60;41.80;;;;;;2300274;55;21013;-75
2021/06/02 09:50:42;;;;;;;3.62;1.30;;;26.70;41.90;;;;;;2300208;55;20957;-76
2021/06/02 09:53:09;;;;;;;2.50;1.12;;;26.70;42.10;;;;;;2383306;53;21718;-73
2021/06/02 09:55:40;;;;;;;2.87;1.17;;;26.70;42.20;;;;;;2303062;55;20973;-78
2021/06/02 09:58:16;;;;;;;2.50;1.23;;;26.80;41.80;;;;;;2299462;55;21016;-75
2021/06/02 10:00:53;;;;;;;2.85;1.25;;;26.90;41.60;;;;;;2294504;55;21040;-75
2021/06/02 10:03:21;;;;;;;3.00;1.30;;;27.00;42.10;;;;;;2299170;54;20970;-74
2021/06/02 10:05:51;;;;;;;2.75;1.15;;;27.00;42.00;;;;;;2302193;55;20917;-78
2021/06/02 10:08:28;;;;;;;2.65;1.30;;;27.10;41.60;;;;;;2300575;55;21021;-77
2021/06/02 10:10:54;;;;;;;2.42;1.30;;;27.20;41.30;;;;;;2306801;55;21091;-77
2021/06/02 10:13:21;;;;;;;2.35;1.17;;;27.20;41.60;;;;;;2340084;54;21047;-77
2021/06/02 10:15:49;;;;;;;4.07;1.27;;;27.30;41.50;;;;;;2300355;55;20988;-76
2021/06/02 10:18:38;;;;;;;2.40;1.30;;;27.30;41.30;;;;;;2316499;53;20994;-76
2021/06/02 10:21:13;;;;;;;2.95;1.20;;;27.40;40.40;;;;;;2302349;55;21021;-75
2021/06/02 10:23:46;;;;;;;3.45;1.02;;;27.50;40.60;;;;;;2301485;55;20952;-78
2021/06/02 10:26:15;;;;;;;;;;;27.50;40.70;;;;;;2304964;55;20945;-75
2021/06/02 10:28:44;;;;;;;2.20;1.10;;;27.60;40.90;;;;;;2304467;55;20075;-75
2021/06/02 10:31:11;;;;;;;2.33;1.05;;;27.70;40.70;;;;;;2295195;55;20979;-75
2021/06/02 10:33:39;;;;;;;2.30;1.27;;;27.70;40.80;;;;;;2296248;55;20952;-76
2021/06/02 10:36:07;;;;;;;2.00;1.05;;;27.80;41.00;;;;;;2299182;55;20914;-75
2021/06/02 10:39:02;;;;;;;3.83;1.60;;;27.90;41.30;;;;;;2300438;55;20972;-79
2021/06/02 10:41:42;;;;;;;2.33;1.10;;;27.90;40.10;;;;;;2440471;54;20956;-77
2021/06/02 10:44:13;;;;;;;2.28;0.95;;;28.00;40.00;;;;;;2333347;54;21044;-79
2021/06/02 10:46:45;;;;;;;2.22;1.12;;;28.10;40.20;;;;;;2304581;55;20933;-75
2021/06/02 10:49:12;;;;;;;3.85;1.27;;;28.10;39.90;;;;;;2295492;55;21078;-76
2021/06/02 10:51:43;;;;;;;2.72;1.12;;;28.20;40.10;;;;;;2296793;55;21319;-76
2021/06/02 10:54:16;;;;;;;2.17;1.12;;;28.30;39.60;;;;;;2302168;55;20913;-76
2021/06/02 10:57:08;;;;;;;2.17;1.10;;;28.30;39.30;;;;;;2302277;55;20932;-78
2021/06/02 10:59:42;;;;;;;2.25;1.10;;;28.40;39.00;;;;;;2393843;53;21821;-75
2021/06/02 11:02:27;;;;;;;3.35;1.02;;;28.40;39.60;;;;;;2301926;55;20920;-75
2021/06/02 11:05:15;;;;;;;3.37;1.10;;;28.50;39.60;;;;;;2539391;53;21007;-75
2021/06/02 11:07:54;;;;;;;1.80;0.90;;;28.60;39.00;;;;;;2302180;55;21039;-77
2021/06/02 11:10:30;;;;;;;2.60;1.15;;;28.60;39.20;;;;;;2305042;54;21077;-76
2021/06/02 11:13:07;;;;;;;1.73;0.90;;;28.70;39.40;;;;;;2275697;56;21020;-76
2021/06/02 11:15:52;;;;;;;2.95;1.73;;;28.80;39.00;;;;;;2301941;55;21843;-75
2021/06/02 11:18:21;;;;;;;2.20;1.10;;;28.80;38.80;;;;;;2299655;55;21326;-77
2021/06/02 11:20:58;;;;;;;2.60;1.30;;;28.80;39.40;;;;;;2295667;55;20950;-77
2021/06/02 11:23:38;;;;;;;2.33;1.10;;;28.90;39.60;;;;;;2295767;55;21002;-76
2021/06/02 11:26:26;;;;;;;2.92;1.27;;;29.00;38.80;;;;;;2303368;55;21040;-77
2021/06/02 11:28:52;;;;;;;2.55;1.17;;;29.10;38.50;;;;;;2301919;55;20981;-76
2021/06/02 11:31:27;;;;;;;2.37;1.10;;;29.10;38.90;;;;;;2303160;55;21053;-79
2021/06/02 11:34:24;;;;;;;2.62;1.10;;;29.10;38.50;;;;;;2305887;54;21028;-78
2021/06/02 11:37:03;;;;;;;1.65;0.88;;;29.20;38.60;;;;;;2302540;55;20929;-76
2021/06/02 11:39:34;;;;;;;4.12;1.20;;;29.20;38.40;;;;;;2304874;55;20905;-75
2021/06/02 11:42:01;;;;;;;3.05;1.20;;;29.20;38.70;;;;;;2274930;55;21021;-80
2021/06/02 11:44:33;;;;;;;3.15;1.15;;;29.30;38.70;;;;;;2343717;54;20972;-78
2021/06/02 11:47:00;;;;;;;2.95;1.25;;;29.30;38.60;;;;;;2302372;55;20952;-80
2021/06/02 11:49:31;;;;;;;1.87;0.98;;;29.40;38.70;;;;;;2306728;53;20969;-79
2021/06/02 11:52:14;;;;;;;2.80;1.02;;;29.40;38.30;;;;;;2364846;53;20974;-76
2021/06/02 11:54:51;;;;;;;2.37;1.02;;;29.50;37.90;;;;;;2327677;54;20972;-79
2021/06/02 11:57:59;;;;;;;2.12;0.95;;;29.50;37.80;;;;;;2300896;54;20994;-78
2021/06/02 12:00:28;;;;;;;3.15;1.20;;;29.60;37.80;;;;;;2539347;53;20909;-78
2021/06/02 12:02:58;;;;;;;1.60;0.90;;;29.70;38.20;;;;;;2410436;53;21023;-80
2021/06/02 12:05:40;;;;;;;1.70;0.88;;;29.70;37.80;;;;;;2316590;54;21472;-77
2021/06/02 12:08:16;;;;;;;2.20;1.08;;;29.80;37.50;;;;;;2386406;54;20954;-80
2021/06/02 12:10:48;;;;;;;2.60;1.10;;;29.90;37.20;;;;;;2301915;55;21008;-79
2021/06/02 12:13:35;;;;;;;2.20;0.98;;;29.90;37.40;;;;;;2297304;55;20971;-79
2021/06/02 12:16:03;;;;;;;2.08;0.93;;;29.90;36.80;;;;;;2303174;55;21425;-78
2021/06/02 12:18:40;;;;;;;2.75;1.25;;;29.90;37.40;;;;;;2304635;55;21013;-77
2021/06/02 12:21:28;;;;;;;1.83;0.90;;;30.00;37.20;;;;;;2299119;55;21792;-78
2021/06/02 12:24:03;;;;;;;3.50;1.30;;;30.00;36.90;;;;;;2298778;55;21871;-79
2021/06/02 12:26:36;;;;;;;1.83;0.80;;;30.00;37.00;;;;;;2312223;53;20934;-76
2021/06/02 12:29:04;;;;;;;2.35;1.10;;;30.10;36.90;;;;;;2394462;54;21001;-78
2021/06/02 12:31:48;;;;;;;2.10;0.90;;;30.10;37.20;;;;;;2305024;53;21076;-78
2021/06/02 12:34:25;;;;;;;2.95;1.23;;;30.20;37.00;;;;;;2297650;55;20942;-78
2021/06/02 12:36:53;;;;;;;2.37;1.10;;;30.30;36.70;;;;;;2323084;54;21061;-80
2021/06/02 12:39:21;;;;;;;3.37;1.15;;;30.30;37.00;;;;;;2285984;55;20924;-77
2021/06/02 12:41:48;;;;;;;1.85;0.90;;;30.40;36.80;;;;;;2305247;55;21004;-79
2021/06/02 12:44:15;;;;;;;2.20;1.05;;;30.40;36.50;;;;;;2330441;54;20929;-79
2021/06/02 12:47:14;;;;;;;3.78;1.20;;;30.40;36.40;;;;;;2302158;55;20948;-76
2021/06/02 12:49:41;;;;;;;3.28;0.88;;;30.50;35.70;;;;;;2298118;55;20977;-77
2021/06/02 12:52:08;;;;;;;2.22;0.85;;;30.50;36.20;;;;;;2302530;54;20929;-76
2021/06/02 12:54:37;;;;;;;2.35;1.23;;;30.50;36.10;;;;;;2300493;55;21081;-78
2021/06/02 12:57:05;;;;;;;1.95;0.85;;;30.50;36.00;;;;;;2298772;55;20945;-76
2021/06/02 12:59:33;;;;;;;2.03;0.90;;;30.60;36.00;;;;;;2299860;55;21089;-76
2021/06/02 13:02:03;;;;;;;1.98;0.98;;;30.60;36.00;;;;;;2301090;54;20933;-76
2021/06/02 13:04:31;;;;;;;1.77;0.73;;;30.70;36.10;;;;;;2538552;53;21413;-77
2021/06/02 13:06:57;;;;;;;1.67;0.80;;;30.70;36.00;;;;;;2467089;53;21100;-77
2021/06/02 13:09:24;;;;;;;2.15;1.00;;;30.80;36.00;;;;;;2301786;55;20945;-78
2021/06/02 13:11:50;;;;;;;2.92;1.33;;;30.80;36.40;;;;;;2298546;55;20930;-77
2021/06/02 13:14:22;;;;;;;2.22;1.20;;;30.90;36.10;;;;;;2336438;54;20965;-77
2021/06/02 13:16:54;;;;;;;4.05;1.50;;;30.90;35.80;;;;;;2387440;54;20977;-76
2021/06/02 13:19:43;;;;;;;1.48;0.85;;;31.00;35.90;;;;;;2354195;54;21030;-77
2021/06/02 13:22:24;;;;;;;2.83;1.00;;;31.10;35.60;;;;;;2297703;55;20953;-77
2021/06/02 13:24:50;;;;;;;2.03;0.90;;;31.10;35.20;;;;;;2298720;55;20937;-77
2021/06/02 13:27:19;;;;;;;3.08;1.20;;;31.20;35.60;;;;;;2302097;55;20997;-79
2021/06/02 13:30:05;;;;;;;2.62;0.80;;;31.20;35.30;;;;;;2384921;53;20960;-76
2021/06/02 13:32:31;;;;;;;2.25;0.90;;;31.30;34.40;;;;;;2301799;55;21452;-78
2021/06/02 13:35:34;;;;;;;2.22;1.02;;;31.30;35.10;;;;;;2406209;53;21811;-79
2021/06/02 13:38:00;;;;;;;2.67;0.88;;;31.40;34.50;;;;;;2301877;55;21075;-78
2021/06/02 13:40:33;;;;;;;2.20;1.00;;;31.40;34.70;;;;;;2301793;55;20945;-79
2021/06/02 13:43:13;;;;;;;2.58;1.10;;;31.50;34.30;;;;;;2301746;55;21012;-77
2021/06/02 13:46:09;;;;;;;2.58;0.90;;;31.50;34.00;;;;;;2302460;55;20930;-78
2021/06/02 13:48:56;;;;;;;3.42;1.00;;;31.60;33.70;;;;;;2297942;55;21053;-80
2021/06/02 13:51:32;;;;;;;2.00;0.85;;;31.70;33.70;;;;;;2300555;55;21708;-78
2021/06/02 13:54:19;;;;;;;2.12;1.10;;;31.70;33.70;;;;;;2300126;55;20985;-78
2021/06/02 13:57:14;;;;;;;3.03;1.00;;;31.80;33.30;;;;;;2302769;55;20976;-78
2021/06/02 13:59:53;;;;;;;2.12;0.90;;;31.80;33.60;;;;;;2499841;53;21798;-78
2021/06/02 14:02:24;;;;;;;3.05;1.00;;;31.80;33.90;;;;;;2301990;55;20932;-79
2021/06/02 14:04:52;;;;;;;2.65;1.15;;;31.90;34.20;;;;;;2302384;55;20984;-77
2021/06/02 14:07:19;;;;;;;2.30;0.75;;;31.90;34.20;;;;;;2301839;55;20932;-77
2021/06/02 14:09:45;;;;;;;2.42;0.93;;;32.00;33.90;;;;;;2301952;55;21004;-80
2021/06/02 14:12:12;;;;;;;2.00;0.90;;;32.00;33.70;;;;;;2277221;56;20962;-79
2021/06/02 14:14:39;;;;;;;1.85;0.88;;;32.00;33.60;;;;;;2297735;55;21361;-77
2021/06/02 14:17:06;;;;;;;1.92;0.93;;;32.00;33.30;;;;;;2304687;55;21012;-75
2021/06/02 14:19:33;;;;;;;2.30;0.90;;;32.10;33.10;;;;;;2309851;54;21033;-81
2021/06/02 14:22:03;;;;;;;2.53;1.15;;;32.10;33.40;;;;;;2298587;55;20980;-79
2021/06/02 14:24:29;;;;;;;2.25;0.90;;;32.10;32.70;;;;;;2301971;55;20968;-77
2021/06/02 14:26:55;;;;;;;2.40;0.95;;;32.10;33.00;;;;;;2302239;55;21675;-76
2021/06/02 14:29:21;;;;;;;2.50;1.00;;;32.10;32.80;;;;;;2301505;55;20986;-79
2021/06/02 14:31:48;;;;;;;4.10;0.80;;;32.20;32.90;;;;;;2296068;55;21005;-76
2021/06/02 14:34:16;;;;;;;2.00;0.98;;;32.20;33.30;;;;;;2299883;55;20973;-78
2021/06/02 14:36:45;;;;;;;2.53;1.08;;;32.20;33.40;;;;;;2302791;55;21004;-76
2021/06/02 14:39:13;;;;;;;3.87;0.98;;;32.30;33.30;;;;;;2302031;55;20965;-76
2021/06/02 14:41:40;;;;;;;2.40;1.08;;;32.30;33.40;;;;;;2302356;55;20965;-76
2021/06/02 14:44:08;;;;;;;3.08;0.82;;;32.40;32.90;;;;;;2302577;55;20992;-77
2021/06/02 14:46:38;;;;;;;2.08;0.98;;;32.40;32.90;;;;;;2451934;53;20966;-76
2021/06/02 14:49:04;;;;;;;3.10;0.82;;;32.50;32.80;;;;;;2312466;54;20952;-77
2021/06/02 14:51:30;;;;;;;3.55;0.95;;;32.60;32.80;;;;;;2301622;55;21024;-73
2021/06/02 14:53:57;;;;;;;2.80;1.20;;;32.60;32.60;;;;;;2301782;55;20947;-77
2021/06/02 14:56:23;;;;;;;2.60;1.00;;;32.60;32.70;;;;;;2302010;55;20929;-77
2021/06/02 14:58:50;;;;;;;2.20;0.82;;;32.70;33.00;;;;;;2302283;55;20948;-77
2021/06/02 15:01:17;;;;;;;2.42;1.10;;;32.70;32.90;;;;;;2296654;54;21463;-77